createdAt,value
2023-01-25T00:00:50.752Z,1039.69
2023-01-25T00:01:50.780Z,1039.67
2023-01-25T00:02:50.739Z,1039.69
2023-01-25T00:03:50.756Z,1039.65
2023-01-25T00:04:50.754Z,1039.65
2023-01-25T00:05:50.768Z,1039.65
2023-01-25T00:06:50.771Z,1039.7
2023-01-25T00:07:50.751Z,1039.67
2023-01-25T00:08:50.749Z,1039.69
2023-01-25T00:09:50.744Z,1039.72
2023-01-25T00:10:50.772Z,1039.73
2023-01-25T00:11:50.745Z,1039.73
2023-01-25T00:12:50.752Z,1039.71
2023-01-25T00:13:50.753Z,1039.7
2023-01-25T00:14:50.731Z,1039.72
2023-01-25T00:15:50.792Z,1039.7
2023-01-25T00:16:50.914Z,1039.71
2023-01-25T00:17:50.744Z,1039.71
2023-01-25T00:18:50.749Z,1039.69
2023-01-25T00:19:50.745Z,1039.69
2023-01-25T00:20:50.768Z,1039.7
2023-01-25T00:21:50.771Z,1039.69
2023-01-25T00:22:50.748Z,1039.72
2023-01-25T00:23:50.788Z,1039.68
2023-01-25T00:24:50.858Z,1039.67
2023-01-25T00:25:50.758Z,1039.65
2023-01-25T00:26:50.750Z,1039.64
2023-01-25T00:27:50.746Z,1039.64
2023-01-25T00:28:50.748Z,1039.67
2023-01-25T00:29:50.736Z,1039.67
2023-01-25T00:30:50.765Z,1039.68
2023-01-25T00:31:50.838Z,1039.66
2023-01-25T00:32:50.776Z,1039.69
2023-01-25T00:33:50.749Z,1039.7
2023-01-25T00:34:50.761Z,1039.69
2023-01-25T00:35:50.761Z,1039.71
2023-01-25T00:36:50.758Z,1039.73
2023-01-25T00:37:50.749Z,1039.7
2023-01-25T00:38:50.749Z,1039.65
2023-01-25T00:39:50.736Z,1039.67
2023-01-25T00:40:50.749Z,1039.65
2023-01-25T00:41:50.727Z,1039.63
2023-01-25T00:42:50.732Z,1039.57
2023-01-25T00:43:50.745Z,1039.53
2023-01-25T00:44:50.733Z,1039.57
2023-01-25T00:45:50.810Z,1039.54
2023-01-25T00:46:50.735Z,1039.53
2023-01-25T00:47:50.731Z,1039.51
2023-01-25T00:48:50.734Z,1039.53
2023-01-25T00:49:50.737Z,1039.53
2023-01-25T00:50:50.746Z,1039.55
2023-01-25T00:51:50.772Z,1039.53
2023-01-25T00:52:50.734Z,1039.56
2023-01-25T00:53:50.744Z,1039.52
2023-01-25T00:54:50.741Z,1039.53
2023-01-25T00:55:50.745Z,1039.53
2023-01-25T00:56:50.728Z,1039.53
2023-01-25T00:57:50.733Z,1039.52
2023-01-25T00:58:50.743Z,1039.5
2023-01-25T00:59:50.731Z,1039.55
2023-01-25T01:00:50.771Z,1039.55
2023-01-25T01:01:50.742Z,1039.48
2023-01-25T01:02:50.732Z,1039.47
2023-01-25T01:03:50.729Z,1039.46
2023-01-25T01:04:50.769Z,1039.45
2023-01-25T01:05:50.749Z,1039.45
2023-01-25T01:06:50.751Z,1039.43
2023-01-25T01:07:50.735Z,1039.43
2023-01-25T01:08:50.738Z,1039.43
2023-01-25T01:09:50.734Z,1039.36
2023-01-25T01:10:50.752Z,1039.38
2023-01-25T01:11:50.759Z,1039.4
2023-01-25T01:12:50.744Z,1039.33
2023-01-25T01:13:50.748Z,1039.35
2023-01-25T01:14:50.752Z,1039.34
2023-01-25T01:15:50.771Z,1039.3
2023-01-25T01:16:50.807Z,1039.29
2023-01-25T01:17:50.748Z,1039.27
2023-01-25T01:18:50.744Z,1039.24
2023-01-25T01:19:50.766Z,1039.22
2023-01-25T01:20:50.761Z,1039.18
2023-01-25T01:21:50.756Z,1039.15
2023-01-25T01:22:50.741Z,1039.14
2023-01-25T01:23:50.790Z,1039.15
2023-01-25T01:24:50.732Z,1039.12
2023-01-25T01:25:50.776Z,1039.14
2023-01-25T01:26:50.743Z,1039.14
2023-01-25T01:27:50.745Z,1039.17
2023-01-25T01:28:50.747Z,1039.12
2023-01-25T01:29:50.764Z,1039.15
2023-01-25T01:30:50.750Z,1039.15
2023-01-25T01:31:50.887Z,1039.11
2023-01-25T01:32:50.869Z,1039.15
2023-01-25T01:33:50.768Z,1039.08
2023-01-25T01:34:50.745Z,1039.06
2023-01-25T01:35:50.760Z,1039.09
2023-01-25T01:36:50.747Z,1039.01
2023-01-25T01:37:50.754Z,1039.05
2023-01-25T01:38:50.769Z,1039.03
2023-01-25T01:39:50.745Z,1038.98
2023-01-25T01:40:50.761Z,1038.96
2023-01-25T01:41:50.742Z,1038.95
2023-01-25T01:42:50.755Z,1038.94
2023-01-25T01:43:50.754Z,1038.94
2023-01-25T01:44:50.776Z,1038.94
2023-01-25T01:45:50.816Z,1038.89
2023-01-25T01:46:50.746Z,1038.89
2023-01-25T01:47:50.749Z,1038.86
2023-01-25T01:48:50.757Z,1038.87
2023-01-25T01:49:50.754Z,1038.85
2023-01-25T01:50:50.743Z,1038.88
2023-01-25T01:51:50.799Z,1038.86
2023-01-25T01:52:50.748Z,1038.87
2023-01-25T01:53:50.756Z,1038.84
2023-01-25T01:54:50.736Z,1038.84
2023-01-25T01:55:50.744Z,1038.84
2023-01-25T01:56:50.724Z,1038.86
2023-01-25T01:57:50.727Z,1038.85
2023-01-25T01:58:50.741Z,1038.86
2023-01-25T01:59:50.732Z,1038.86
2023-01-25T02:00:50.746Z,1038.82
2023-01-25T02:01:50.731Z,1038.82
2023-01-25T02:02:50.791Z,1038.79
2023-01-25T02:03:50.731Z,1038.8
2023-01-25T02:04:50.727Z,1038.81
2023-01-25T02:05:50.775Z,1038.81
2023-01-25T02:06:50.777Z,1038.79
2023-01-25T02:07:50.737Z,1038.76
2023-01-25T02:08:50.724Z,1038.74
2023-01-25T02:09:50.737Z,1038.77
2023-01-25T02:10:50.761Z,1038.75
2023-01-25T02:11:50.761Z,1038.75
2023-01-25T02:12:50.792Z,1038.71
2023-01-25T02:13:50.731Z,1038.73
2023-01-25T02:14:50.813Z,1038.75
2023-01-25T02:15:50.811Z,1038.73
2023-01-25T02:16:50.739Z,1038.74
2023-01-25T02:17:50.732Z,1038.7
2023-01-25T02:18:50.729Z,1038.65
2023-01-25T02:19:50.730Z,1038.63
2023-01-25T02:20:50.870Z,1038.6
2023-01-25T02:21:50.744Z,1038.61
2023-01-25T02:22:50.727Z,1038.57
2023-01-25T02:23:50.759Z,1038.56
2023-01-25T02:24:50.755Z,1038.56
2023-01-25T02:25:50.775Z,1038.53
2023-01-25T02:26:50.748Z,1038.51
2023-01-25T02:27:50.751Z,1038.52
2023-01-25T02:28:50.748Z,1038.45
2023-01-25T02:29:50.733Z,1038.46
2023-01-25T02:30:50.826Z,1038.46
2023-01-25T02:31:50.857Z,1038.45
2023-01-25T02:32:50.759Z,1038.41
2023-01-25T02:33:50.753Z,1038.45
2023-01-25T02:34:50.750Z,1038.4
2023-01-25T02:35:50.756Z,1038.41
2023-01-25T02:36:50.784Z,1038.4
2023-01-25T02:37:50.752Z,1038.37
2023-01-25T02:38:50.751Z,1038.37
2023-01-25T02:39:50.745Z,1038.39
2023-01-25T02:40:50.768Z,1038.37
2023-01-25T02:41:50.752Z,1038.37
2023-01-25T02:42:50.751Z,1038.38
2023-01-25T02:43:50.746Z,1038.33
2023-01-25T02:44:50.728Z,1038.31
2023-01-25T02:45:50.835Z,1038.31
2023-01-25T02:46:50.735Z,1038.31
2023-01-25T02:47:50.737Z,1038.26
2023-01-25T02:48:50.745Z,1038.26
2023-01-25T02:49:50.744Z,1038.29
2023-01-25T02:50:50.753Z,1038.27
2023-01-25T02:51:50.755Z,1038.25
2023-01-25T02:52:50.779Z,1038.27
2023-01-25T02:53:50.742Z,1038.27
2023-01-25T02:54:50.745Z,1038.24
2023-01-25T02:55:50.756Z,1038.22
2023-01-25T02:56:50.720Z,1038.22
2023-01-25T02:57:50.731Z,1038.22
2023-01-25T02:58:50.753Z,1038.27
2023-01-25T02:59:50.739Z,1038.22
2023-01-25T03:00:50.734Z,1038.24
2023-01-25T03:01:50.817Z,1038.23
2023-01-25T03:02:50.765Z,1038.23
2023-01-25T03:03:50.737Z,1038.23
2023-01-25T03:04:50.773Z,1038.22
2023-01-25T03:05:50.771Z,1038.22
2023-01-25T03:06:50.759Z,1038.14
2023-01-25T03:07:50.740Z,1038.13
2023-01-25T03:08:50.737Z,1038.16
2023-01-25T03:09:50.734Z,1038.1
2023-01-25T03:10:50.732Z,1038.13
2023-01-25T03:11:50.724Z,1038.06
2023-01-25T03:12:50.726Z,1038.08
2023-01-25T03:13:50.723Z,1038.02
2023-01-25T03:14:50.726Z,1038.01
2023-01-25T03:15:50.771Z,1038.03
2023-01-25T03:16:50.724Z,1038
2023-01-25T03:17:50.737Z,1037.98
2023-01-25T03:18:50.727Z,1037.96
2023-01-25T03:19:50.724Z,1037.93
2023-01-25T03:20:50.747Z,1037.94
2023-01-25T03:21:50.744Z,1037.92
2023-01-25T03:22:50.729Z,1037.92
2023-01-25T03:23:50.786Z,1037.92
2023-01-25T03:24:50.724Z,1037.93
2023-01-25T03:25:50.737Z,1037.92
2023-01-25T03:26:50.722Z,1037.95
2023-01-25T03:27:50.718Z,1037.94
2023-01-25T03:28:50.723Z,1037.96
2023-01-25T03:29:50.725Z,1038
2023-01-25T03:30:50.739Z,1038
2023-01-25T03:31:50.851Z,1037.96
2023-01-25T03:32:50.732Z,1038.03
2023-01-25T03:33:50.730Z,1037.99
2023-01-25T03:34:50.728Z,1038.03
2023-01-25T03:35:50.774Z,1038.04
2023-01-25T03:36:50.761Z,1038.07
2023-01-25T03:37:50.728Z,1038.05
2023-01-25T03:38:50.728Z,1038.05
2023-01-25T03:39:50.720Z,1038.08
2023-01-25T03:40:50.735Z,1038.09
2023-01-25T03:41:50.751Z,1038.13
2023-01-25T03:42:50.745Z,1038.09
2023-01-25T03:43:50.747Z,1038.06
2023-01-25T03:44:50.741Z,1038.07
2023-01-25T03:45:51.008Z,1038.05
2023-01-25T03:46:50.799Z,1038.03
2023-01-25T03:47:50.746Z,1038.07
2023-01-25T03:48:50.737Z,1038.07
2023-01-25T03:49:50.731Z,1038.06
2023-01-25T03:50:50.761Z,1038.02
2023-01-25T03:51:50.750Z,1038.03
2023-01-25T03:52:50.749Z,1038.08
2023-01-25T03:53:50.737Z,1038.06
2023-01-25T03:54:50.732Z,1038.07
2023-01-25T03:55:51.168Z,1038.07
2023-01-25T03:56:50.751Z,1038.08
2023-01-25T03:57:50.743Z,1038.08
2023-01-25T03:58:50.749Z,1038.11
2023-01-25T03:59:50.747Z,1038.09
2023-01-25T04:00:50.814Z,1038.09
2023-01-25T04:01:50.807Z,1038.12
2023-01-25T04:02:50.744Z,1038.09
2023-01-25T04:03:50.740Z,1038.1
2023-01-25T04:04:50.740Z,1038.12
2023-01-25T04:05:50.757Z,1038.13
2023-01-25T04:06:50.748Z,1038.11
2023-01-25T04:07:50.738Z,1038.12
2023-01-25T04:08:50.748Z,1038.13
2023-01-25T04:09:50.752Z,1038.13
2023-01-25T04:10:50.764Z,1038.07
2023-01-25T04:11:50.739Z,1038.1
2023-01-25T04:12:50.745Z,1038.11
2023-01-25T04:13:50.740Z,1038.1
2023-01-25T04:14:50.740Z,1038.12
2023-01-25T04:15:50.749Z,1038.12
2023-01-25T04:16:50.772Z,1038.16
2023-01-25T04:17:50.779Z,1038.09
2023-01-25T04:18:50.721Z,1038.1
2023-01-25T04:19:50.758Z,1038.12
2023-01-25T04:20:50.757Z,1038.13
2023-01-25T04:21:50.755Z,1038.07
2023-01-25T04:22:50.734Z,1038.05
2023-01-25T04:23:50.806Z,1038.1
2023-01-25T04:24:50.766Z,1038.07
2023-01-25T04:25:50.748Z,1038.07
2023-01-25T04:26:50.724Z,1038.07
2023-01-25T04:27:50.724Z,1038.06
2023-01-25T04:28:50.725Z,1038.05
2023-01-25T04:29:50.727Z,1038.06
2023-01-25T04:30:50.740Z,1038.06
2023-01-25T04:31:50.871Z,1038.03
2023-01-25T04:32:50.851Z,1038.02
2023-01-25T04:33:51.437Z,1037.99
2023-01-25T04:34:50.723Z,1037.98
2023-01-25T04:35:50.765Z,1037.94
2023-01-25T04:36:50.738Z,1037.95
2023-01-25T04:37:50.724Z,1037.95
2023-01-25T04:38:50.720Z,1037.93
2023-01-25T04:39:50.719Z,1037.95
2023-01-25T04:40:50.776Z,1037.93
2023-01-25T04:41:50.725Z,1037.95
2023-01-25T04:42:50.717Z,1037.94
2023-01-25T04:43:50.798Z,1037.94
2023-01-25T04:44:50.717Z,1037.91
2023-01-25T04:45:50.828Z,1037.92
2023-01-25T04:46:50.724Z,1037.88
2023-01-25T04:47:50.722Z,1037.91
2023-01-25T04:48:50.729Z,1037.91
2023-01-25T04:49:50.726Z,1037.87
2023-01-25T04:50:50.741Z,1037.87
2023-01-25T04:51:50.742Z,1037.83
2023-01-25T04:52:50.719Z,1037.83
2023-01-25T04:53:50.731Z,1037.85
2023-01-25T04:54:50.725Z,1037.83
2023-01-25T04:55:50.746Z,1037.78
2023-01-25T04:56:50.744Z,1037.78
2023-01-25T04:57:50.751Z,1037.76
2023-01-25T04:58:50.741Z,1037.76
2023-01-25T04:59:50.726Z,1037.75
2023-01-25T05:00:50.749Z,1037.75
2023-01-25T05:01:50.745Z,1037.75
2023-01-25T05:02:50.748Z,1037.75
2023-01-25T05:03:50.733Z,1037.76
2023-01-25T05:04:50.751Z,1037.72
2023-01-25T05:05:50.757Z,1037.67
2023-01-25T05:06:50.764Z,1037.71
2023-01-25T05:07:50.749Z,1037.69
2023-01-25T05:08:50.776Z,1037.73
2023-01-25T05:09:50.744Z,1037.67
2023-01-25T05:10:50.740Z,1037.67
2023-01-25T05:11:50.721Z,1037.65
2023-01-25T05:12:50.744Z,1037.66
2023-01-25T05:13:50.739Z,1037.65
2023-01-25T05:14:50.821Z,1037.71
2023-01-25T05:15:50.763Z,1037.66
2023-01-25T05:16:50.837Z,1037.66
2023-01-25T05:17:50.738Z,1037.68
2023-01-25T05:18:50.739Z,1037.66
2023-01-25T05:19:50.738Z,1037.67
2023-01-25T05:20:50.747Z,1037.67
2023-01-25T05:21:50.759Z,1037.64
2023-01-25T05:22:50.735Z,1037.64
2023-01-25T05:23:50.815Z,1037.62
2023-01-25T05:24:50.746Z,1037.62
2023-01-25T05:25:50.747Z,1037.6
2023-01-25T05:26:50.739Z,1037.62
2023-01-25T05:27:50.842Z,1037.64
2023-01-25T05:28:50.742Z,1037.64
2023-01-25T05:29:50.763Z,1037.64
2023-01-25T05:30:50.777Z,1037.6
2023-01-25T05:31:50.805Z,1037.61
2023-01-25T05:32:50.780Z,1037.62
2023-01-25T05:33:50.754Z,1037.65
2023-01-25T05:34:50.767Z,1037.61
2023-01-25T05:35:50.753Z,1037.58
2023-01-25T05:36:50.761Z,1037.6
2023-01-25T05:37:50.728Z,1037.6
2023-01-25T05:38:50.735Z,1037.59
2023-01-25T05:39:50.725Z,1037.61
2023-01-25T05:40:50.740Z,1037.61
2023-01-25T05:41:50.731Z,1037.6
2023-01-25T05:42:50.724Z,1037.59
2023-01-25T05:43:50.732Z,1037.56
2023-01-25T05:44:50.736Z,1037.55
2023-01-25T05:45:50.793Z,1037.52
2023-01-25T05:46:50.718Z,1037.49
2023-01-25T05:47:50.722Z,1037.48
2023-01-25T05:48:50.722Z,1037.48
2023-01-25T05:49:50.740Z,1037.45
2023-01-25T05:50:50.745Z,1037.42
2023-01-25T05:51:50.745Z,1037.4
2023-01-25T05:52:50.725Z,1037.37
2023-01-25T05:53:50.729Z,1037.36
2023-01-25T05:54:50.718Z,1037.33
2023-01-25T05:55:50.749Z,1037.34
2023-01-25T05:56:50.732Z,1037.3
2023-01-25T05:57:50.725Z,1037.32
2023-01-25T05:58:50.720Z,1037.33
2023-01-25T05:59:50.724Z,1037.35
2023-01-25T06:00:50.736Z,1037.35
2023-01-25T06:01:50.719Z,1037.31
2023-01-25T06:02:50.828Z,1037.3
2023-01-25T06:03:50.730Z,1037.26
2023-01-25T06:04:50.829Z,1037.28
2023-01-25T06:05:50.760Z,1037.33
2023-01-25T06:06:50.737Z,1037.31
2023-01-25T06:07:50.778Z,1037.3
2023-01-25T06:08:50.737Z,1037.23
2023-01-25T06:09:50.742Z,1037.25
2023-01-25T06:10:50.753Z,1037.24
2023-01-25T06:11:50.736Z,1037.28
2023-01-25T06:12:50.746Z,1037.29
2023-01-25T06:13:50.736Z,1037.29
2023-01-25T06:14:50.733Z,1037.25
2023-01-25T06:15:50.841Z,1037.3
2023-01-25T06:16:50.740Z,1037.26
2023-01-25T06:17:50.733Z,1037.31
2023-01-25T06:18:50.726Z,1037.23
2023-01-25T06:19:50.746Z,1037.29
2023-01-25T06:20:50.737Z,1037.32
2023-01-25T06:21:50.742Z,1037.3
2023-01-25T06:22:50.758Z,1037.32
2023-01-25T06:23:50.783Z,1037.31
2023-01-25T06:24:50.738Z,1037.29
2023-01-25T06:25:50.757Z,1037.25
2023-01-25T06:26:50.752Z,1037.25
2023-01-25T06:27:50.762Z,1037.25
2023-01-25T06:28:52.606Z,1037.3
2023-01-25T06:29:50.737Z,1037.26
2023-01-25T06:30:50.813Z,1037.29
2023-01-25T06:31:50.753Z,1037.29
2023-01-25T06:32:50.738Z,1037.35
2023-01-25T06:33:50.734Z,1037.37
2023-01-25T06:34:50.720Z,1037.35
2023-01-25T06:35:50.802Z,1037.33
2023-01-25T06:36:50.760Z,1037.33
2023-01-25T06:37:50.733Z,1037.34
2023-01-25T06:38:50.799Z,1037.35
2023-01-25T06:39:50.759Z,1037.37
2023-01-25T06:40:50.743Z,1037.45
2023-01-25T06:41:50.821Z,1037.46
2023-01-25T06:42:50.755Z,1037.46
2023-01-25T06:43:50.759Z,1037.45
2023-01-25T06:44:50.769Z,1037.46
2023-01-25T06:45:51.007Z,1037.45
2023-01-25T06:46:50.800Z,1037.46
2023-01-25T06:47:50.815Z,1037.41
2023-01-25T06:48:50.799Z,1037.41
2023-01-25T06:49:50.726Z,1037.4
2023-01-25T06:50:50.764Z,1037.4
2023-01-25T06:51:50.793Z,1037.36
2023-01-25T06:52:50.733Z,1037.37
2023-01-25T06:53:50.726Z,1037.34
2023-01-25T06:54:50.722Z,1037.35
2023-01-25T06:55:50.739Z,1037.36
2023-01-25T06:56:50.727Z,1037.37
2023-01-25T06:57:50.732Z,1037.36
2023-01-25T06:58:50.855Z,1037.34
2023-01-25T06:59:50.718Z,1037.36
2023-01-25T07:00:50.747Z,1037.34
2023-01-25T07:01:50.821Z,1037.32
2023-01-25T07:02:50.793Z,1037.28
2023-01-25T07:03:50.722Z,1037.31
2023-01-25T07:04:50.725Z,1037.32
2023-01-25T07:05:50.737Z,1037.28
2023-01-25T07:06:50.737Z,1037.24
2023-01-25T07:07:50.716Z,1037.25
2023-01-25T07:08:50.759Z,1037.22
2023-01-25T07:09:50.725Z,1037.2
2023-01-25T07:10:50.739Z,1037.2
2023-01-25T07:11:50.722Z,1037.2
2023-01-25T07:12:50.715Z,1037.22
2023-01-25T07:13:50.721Z,1037.22
2023-01-25T07:14:50.717Z,1037.17
2023-01-25T07:15:50.736Z,1037.11
2023-01-25T07:16:50.735Z,1037.15
2023-01-25T07:17:50.723Z,1037.13
2023-01-25T07:18:50.715Z,1037.13
2023-01-25T07:19:50.743Z,1037.15
2023-01-25T07:20:50.757Z,1037.13
2023-01-25T07:21:50.768Z,1037.09
2023-01-25T07:22:50.747Z,1037.11
2023-01-25T07:23:50.806Z,1037.14
2023-01-25T07:24:50.811Z,1037.08
2023-01-25T07:25:50.774Z,1037.08
2023-01-25T07:26:50.740Z,1037.07
2023-01-25T07:27:50.757Z,1037.1
2023-01-25T07:28:50.741Z,1037.06
2023-01-25T07:29:50.739Z,1037.03
2023-01-25T07:30:50.791Z,1037.03
2023-01-25T07:31:50.813Z,1037
2023-01-25T07:32:50.739Z,1036.99
2023-01-25T07:33:50.734Z,1036.95
2023-01-25T07:34:50.746Z,1036.96
2023-01-25T07:35:50.758Z,1036.98
2023-01-25T07:36:50.808Z,1036.91
2023-01-25T07:37:50.751Z,1036.9
2023-01-25T07:38:50.739Z,1036.96
2023-01-25T07:39:50.767Z,1036.94
2023-01-25T07:40:50.745Z,1036.94
2023-01-25T07:41:50.746Z,1036.95
2023-01-25T07:42:50.770Z,1036.97
2023-01-25T07:43:50.729Z,1036.95
2023-01-25T07:44:50.741Z,1036.92
2023-01-25T07:45:50.765Z,1036.92
2023-01-25T07:46:50.740Z,1036.92
2023-01-25T07:47:50.764Z,1036.89
2023-01-25T07:48:50.782Z,1036.89
2023-01-25T07:49:50.743Z,1036.92
2023-01-25T07:50:50.755Z,1036.92
2023-01-25T07:51:50.757Z,1036.91
2023-01-25T07:52:50.745Z,1036.9
2023-01-25T07:53:50.740Z,1036.9
2023-01-25T07:54:50.758Z,1036.93
2023-01-25T07:55:50.753Z,1036.96
2023-01-25T07:56:50.725Z,1036.98
2023-01-25T07:57:50.765Z,1036.95
2023-01-25T07:58:50.744Z,1036.95
2023-01-25T07:59:50.738Z,1036.94
2023-01-25T08:00:50.859Z,1036.94
2023-01-25T08:01:50.764Z,1036.91
2023-01-25T08:02:50.749Z,1036.91
2023-01-25T08:03:50.718Z,1036.91
2023-01-25T08:04:50.730Z,1036.9
2023-01-25T08:05:50.761Z,1036.89
2023-01-25T08:06:50.755Z,1036.92
2023-01-25T08:07:50.721Z,1036.92
2023-01-25T08:08:50.727Z,1036.9
2023-01-25T08:09:50.724Z,1036.9
2023-01-25T08:10:50.747Z,1036.87
2023-01-25T08:11:50.722Z,1036.9
2023-01-25T08:12:50.725Z,1036.89
2023-01-25T08:13:50.727Z,1036.83
2023-01-25T08:14:50.729Z,1036.79
2023-01-25T08:15:50.733Z,1036.79
2023-01-25T08:16:50.721Z,1036.83
2023-01-25T08:17:50.730Z,1036.77
2023-01-25T08:18:50.724Z,1036.79
2023-01-25T08:19:50.723Z,1036.75
2023-01-25T08:20:50.742Z,1036.75
2023-01-25T08:21:50.754Z,1036.74
2023-01-25T08:22:50.725Z,1036.67
2023-01-25T08:23:50.790Z,1036.66
2023-01-25T08:24:50.718Z,1036.63
2023-01-25T08:25:50.742Z,1036.63
2023-01-25T08:26:50.722Z,1036.62
2023-01-25T08:27:50.719Z,1036.54
2023-01-25T08:28:50.721Z,1036.55
2023-01-25T08:29:50.737Z,1036.54
2023-01-25T08:30:57.238Z,1036.47
2023-01-25T08:31:50.804Z,1036.51
2023-01-25T08:32:50.741Z,1036.5
2023-01-25T08:33:50.736Z,1036.5
2023-01-25T08:34:50.754Z,1036.47
2023-01-25T08:35:50.757Z,1036.47
2023-01-25T08:37:50.779Z,1036.55
2023-01-25T08:38:50.737Z,1036.54
2023-01-25T08:39:50.744Z,1036.59
2023-01-25T08:40:50.746Z,1036.56
2023-01-25T08:41:50.733Z,1036.53
2023-01-25T08:42:50.747Z,1036.52
2023-01-25T08:43:50.778Z,1036.54
2023-01-25T08:44:50.735Z,1036.55
2023-01-25T08:45:50.753Z,1036.53
2023-01-25T08:46:50.739Z,1036.56
2023-01-25T08:47:50.758Z,1036.6
2023-01-25T08:48:50.734Z,1036.6
2023-01-25T08:49:50.751Z,1036.53
2023-01-25T08:50:50.781Z,1036.56
2023-01-25T08:51:50.755Z,1036.49
2023-01-25T08:52:50.739Z,1036.5
2023-01-25T08:53:50.737Z,1036.49
2023-01-25T08:54:50.740Z,1036.51
2023-01-25T08:55:50.827Z,1036.51
2023-01-25T08:56:50.739Z,1036.48
2023-01-25T08:57:50.746Z,1036.48
2023-01-25T08:58:50.740Z,1036.49
2023-01-25T08:59:50.722Z,1036.49
2023-01-25T09:00:50.751Z,1036.46
2023-01-25T09:01:50.739Z,1036.43
2023-01-25T09:02:50.752Z,1036.42
2023-01-25T09:03:50.863Z,1036.45
2023-01-25T09:04:50.736Z,1036.46
2023-01-25T09:05:50.754Z,1036.48
2023-01-25T09:06:50.758Z,1036.48
2023-01-25T09:07:50.744Z,1036.44
2023-01-25T09:08:50.739Z,1036.46
2023-01-25T09:09:50.753Z,1036.45
2023-01-25T09:10:50.732Z,1036.45
2023-01-25T09:11:50.740Z,1036.42
2023-01-25T09:12:50.735Z,1036.45
2023-01-25T09:13:50.783Z,1036.45
2023-01-25T09:14:50.733Z,1036.47
2023-01-25T09:15:50.743Z,1036.47
2023-01-25T09:16:50.719Z,1036.45
2023-01-25T09:17:50.735Z,1036.47
2023-01-25T09:18:50.998Z,1036.46
2023-01-25T09:20:50.735Z,1036.44
2023-01-25T09:21:50.766Z,1036.45
2023-01-25T09:22:50.882Z,1036.39
2023-01-25T09:24:04.589Z,1036.4
2023-01-25T09:24:50.789Z,1036.42
2023-01-25T09:25:50.737Z,1036.41
2023-01-25T09:26:59.384Z,1036.35
2023-01-25T09:27:50.724Z,1036.37
2023-01-25T09:28:50.728Z,1036.32
2023-01-25T09:30:13.682Z,1036.35
2023-01-25T09:31:06.824Z,1036.35
2023-01-25T09:31:50.891Z,1036.33
2023-01-25T09:32:50.965Z,1036.3
2023-01-25T09:33:50.730Z,1036.27
2023-01-25T09:34:50.724Z,1036.25
2023-01-25T09:35:50.741Z,1036.22
2023-01-25T09:36:50.772Z,1036.23
2023-01-25T09:37:50.719Z,1036.21
2023-01-25T09:38:50.724Z,1036.14
2023-01-25T09:39:50.784Z,1036.09
2023-01-25T09:40:50.743Z,1036.09
2023-01-25T09:41:50.726Z,1036.14
2023-01-25T09:42:50.719Z,1036.14
2023-01-25T09:43:50.718Z,1036.08
2023-01-25T09:44:50.731Z,1036.05
2023-01-25T09:45:50.855Z,1036.05
2023-01-25T09:46:50.723Z,1036.08
2023-01-25T09:47:50.726Z,1036.06
2023-01-25T09:48:56.510Z,1036.06
2023-01-25T09:49:50.759Z,1036.14
2023-01-25T09:50:50.749Z,1036.12
2023-01-25T09:51:50.766Z,1036.12
2023-01-25T09:52:50.737Z,1036.13
2023-01-25T09:53:50.738Z,1036.13
2023-01-25T09:54:50.756Z,1036.13
2023-01-25T09:55:50.748Z,1036.07
2023-01-25T09:56:50.744Z,1036.06
2023-01-25T09:57:50.726Z,1036.07
2023-01-25T09:58:50.745Z,1036.04
2023-01-25T09:59:50.740Z,1036.07
2023-01-25T10:00:50.767Z,1036.06
2023-01-25T10:01:50.752Z,1036.09
2023-01-25T10:02:50.775Z,1036.03
2023-01-25T10:03:50.735Z,1036.05
2023-01-25T10:04:50.736Z,1036.02
2023-01-25T10:05:50.757Z,1036.01
2023-01-25T10:07:00.095Z,1036
2023-01-25T10:07:50.732Z,1035.96
2023-01-25T10:08:50.741Z,1035.97
2023-01-25T10:09:50.726Z,1035.96
2023-01-25T10:10:50.770Z,1035.95
2023-01-25T10:11:50.747Z,1035.93
2023-01-25T10:12:50.742Z,1035.91
2023-01-25T10:13:50.748Z,1035.9
2023-01-25T10:14:50.746Z,1035.9
2023-01-25T10:15:50.812Z,1035.93
2023-01-25T10:16:50.792Z,1035.9
2023-01-25T10:17:50.736Z,1035.91
2023-01-25T10:18:50.739Z,1035.87
2023-01-25T10:19:50.739Z,1035.9
2023-01-25T10:20:50.740Z,1035.94
2023-01-25T10:21:50.747Z,1035.95
2023-01-25T10:22:50.732Z,1035.94
2023-01-25T10:23:50.816Z,1035.98
2023-01-25T10:24:50.723Z,1035.95
2023-01-25T10:25:50.775Z,1035.93
2023-01-25T10:26:50.740Z,1035.91
2023-01-25T10:27:50.749Z,1035.89
2023-01-25T10:28:50.749Z,1035.86
2023-01-25T10:29:50.738Z,1035.91
2023-01-25T10:30:50.858Z,1035.91
2023-01-25T10:31:50.833Z,1035.85
2023-01-25T10:32:55.910Z,1035.83
2023-01-25T10:33:50.721Z,1035.83
2023-01-25T10:34:56.592Z,1035.83
2023-01-25T10:35:50.743Z,1035.82
2023-01-25T10:36:50.744Z,1035.78
2023-01-25T10:37:50.717Z,1035.81
2023-01-25T10:38:50.720Z,1035.75
2023-01-25T10:39:50.724Z,1035.76
2023-01-25T10:40:50.760Z,1035.76
2023-01-25T10:41:50.723Z,1035.71
2023-01-25T10:42:50.730Z,1035.63
2023-01-25T10:43:50.721Z,1035.6
2023-01-25T10:44:50.731Z,1035.63
2023-01-25T10:45:50.740Z,1035.63
2023-01-25T10:46:50.741Z,1035.63
2023-01-25T10:47:50.723Z,1035.58
2023-01-25T10:48:50.722Z,1035.58
2023-01-25T10:49:50.720Z,1035.57
2023-01-25T10:50:50.745Z,1035.57
2023-01-25T10:51:50.742Z,1035.57
2023-01-25T10:52:50.723Z,1035.54
2023-01-25T10:53:50.718Z,1035.53
2023-01-25T10:54:50.725Z,1035.5
2023-01-25T10:55:50.741Z,1035.46
2023-01-25T10:56:50.724Z,1035.51
2023-01-25T10:57:50.720Z,1035.48
2023-01-25T10:58:50.723Z,1035.42
2023-01-25T10:59:50.726Z,1035.38
2023-01-25T11:00:50.767Z,1035.35
2023-01-25T11:01:50.758Z,1035.32
2023-01-25T11:02:50.780Z,1035.31
2023-01-25T11:03:50.755Z,1035.27
2023-01-25T11:04:50.859Z,1035.25
2023-01-25T11:05:50.764Z,1035.23
2023-01-25T11:06:50.747Z,1035.22
2023-01-25T11:07:50.744Z,1035.21
2023-01-25T11:08:50.739Z,1035.17
2023-01-25T11:09:50.749Z,1035.11
2023-01-25T11:10:50.749Z,1035.08
2023-01-25T11:11:50.745Z,1035.08
2023-01-25T11:12:50.742Z,1035.07
2023-01-25T11:13:50.753Z,1035.05
2023-01-25T11:14:50.757Z,1035.1
2023-01-25T11:15:50.796Z,1035.13
2023-01-25T11:16:50.745Z,1035.1
2023-01-25T11:17:51.075Z,1035.09
2023-01-25T11:18:50.738Z,1035.07
2023-01-25T11:19:50.735Z,1035.01
2023-01-25T11:20:50.758Z,1035.01
2023-01-25T11:21:50.759Z,1034.98
2023-01-25T11:22:50.740Z,1034.91
2023-01-25T11:23:50.793Z,1034.92
2023-01-25T11:24:50.743Z,1034.89
2023-01-25T11:25:50.754Z,1034.82
2023-01-25T11:26:50.732Z,1034.81
2023-01-25T11:27:50.738Z,1034.77
2023-01-25T11:28:50.750Z,1034.74
2023-01-25T11:29:50.731Z,1034.69
2023-01-25T11:30:50.927Z,1034.65
2023-01-25T11:31:50.887Z,1034.65
2023-01-25T11:32:50.747Z,1034.58
2023-01-25T11:33:50.747Z,1034.57
2023-01-25T11:34:50.761Z,1034.56
2023-01-25T11:35:50.752Z,1034.52
2023-01-25T11:36:50.766Z,1034.52
2023-01-25T11:37:50.756Z,1034.51
2023-01-25T11:38:50.751Z,1034.55
2023-01-25T11:39:50.737Z,1034.5
2023-01-25T11:40:50.755Z,1034.51
2023-01-25T11:41:50.753Z,1034.51
2023-01-25T11:42:50.733Z,1034.46
2023-01-25T11:43:50.740Z,1034.46
2023-01-25T11:44:50.729Z,1034.44
2023-01-25T11:45:50.767Z,1034.43
2023-01-25T11:46:50.838Z,1034.38
2023-01-25T11:47:50.744Z,1034.39
2023-01-25T11:48:50.736Z,1034.39
2023-01-25T11:49:50.740Z,1034.31
2023-01-25T11:50:50.851Z,1034.31
2023-01-25T11:51:52.840Z,1034.26
2023-01-25T11:52:50.721Z,1034.22
2023-01-25T11:53:50.735Z,1034.19
2023-01-25T11:54:50.724Z,1034.19
2023-01-25T11:55:50.743Z,1034.17
2023-01-25T11:56:50.731Z,1034.11
2023-01-25T11:57:50.720Z,1034.17
2023-01-25T11:58:50.735Z,1034.17
2023-01-25T11:59:50.724Z,1034.18
2023-01-25T12:00:50.731Z,1034.18
2023-01-25T12:01:50.727Z,1034.16
2023-01-25T12:02:50.793Z,1034.11
2023-01-25T12:03:50.736Z,1034.14
2023-01-25T12:04:50.716Z,1034.1
2023-01-25T12:05:50.759Z,1034.12
2023-01-25T12:06:50.751Z,1034.09
2023-01-25T12:07:50.735Z,1034.09
2023-01-25T12:08:50.746Z,1034.07
2023-01-25T12:09:50.722Z,1034.05
2023-01-25T12:10:50.747Z,1034.05